Lanigan, Canada
Current Conditions -  °F | °C
As of 3:37 AM on Thursday 18 Dec 2014 (Local Time) from CYXE Reporting Station
Light Snow Light Snow  
Wind Chill: 10°   Ceiling: 300
Heat Index: 19°   Visibility: 3mi
Dew Point: 19°   Wind: 7mph
Humidity: 100%   Direction: 160°SSE
Pressure: 29.95"   Gusts: NA
Location:  51.85°N, 105.03°W
Report Text: CYXE 180937Z 16006KT 3SM -SG BR OVC003 M07/M07 A2995 RMK ST8 SLP176
Loading
Personal Weather Stations






























Interactive Weather Map New forecast layout! Learn more

10-Day Weather Forecast

Advertisements
Track Severe Weather on mobile